Time;durP1;ratioP1;P1;durP2;ratioP2;P2;SDS_P1;SDS_P2;PMS_P1;PMS_P2;Temp;Humidity;BMP_temperature;BMP_pressure;BME280_temperature;BME280_humidity;BME280_pressure;Samples;Min_cycle;Max_cycle;Signal;HPM_P1;HPM_P2
2020/12/10 00:01:01;;;;;;;4.93;3.97;;;18.90;50.70;;;;;;5036903;22;20204;-45
2020/12/10 00:03:26;;;;;;;5.95;4.28;;;18.90;50.70;;;;;;5040040;28;20102;-47
2020/12/10 00:05:52;;;;;;;6.80;4.22;;;18.90;50.80;;;;;;5040485;28;20037;-45
2020/12/10 00:08:17;;;;;;;6.00;4.18;;;18.90;50.80;;;;;;5039850;28;20036;-45
2020/12/10 00:10:43;;;;;;;5.35;4.40;;;18.80;50.90;;;;;;5040613;28;20041;-45
2020/12/10 00:13:08;;;;;;;5.78;4.97;;;18.90;50.90;;;;;;5040455;28;20036;-47
2020/12/10 00:15:34;;;;;;;6.50;5.47;;;19.00;50.90;;;;;;5041663;28;20091;-45
2020/12/10 00:17:59;;;;;;;7.35;4.93;;;19.10;50.80;;;;;;5043204;28;20025;-46
2020/12/10 00:20:25;;;;;;;9.60;5.70;;;19.20;50.90;;;;;;5042370;28;20036;-45
2020/12/10 00:22:50;;;;;;;6.50;4.78;;;19.30;50.90;;;;;;5042602;28;20083;-47
2020/12/10 00:25:15;;;;;;;6.90;4.75;;;19.40;50.80;;;;;;5025350;28;20494;-45
2020/12/10 00:27:41;;;;;;;7.90;5.38;;;19.50;50.80;;;;;;5042859;28;20319;-46
2020/12/10 00:30:07;;;;;;;7.07;5.50;;;19.60;50.60;;;;;;5025323;28;20040;-45
2020/12/10 00:32:33;;;;;;;8.45;6.15;;;19.60;50.40;;;;;;5007457;28;20402;-46
2020/12/10 00:34:59;;;;;;;7.63;5.65;;;19.60;50.30;;;;;;5024568;28;20043;-47
2020/12/10 00:37:27;;;;;;;8.10;6.15;;;19.70;50.20;;;;;;5041917;28;20558;-45
2020/12/10 00:39:54;;;;;;;8.88;6.47;;;19.70;50.10;;;;;;5042656;28;20053;-45
2020/12/10 00:42:19;;;;;;;8.50;6.32;;;19.60;50.00;;;;;;5025222;28;20037;-46
2020/12/10 00:44:45;;;;;;;10.57;6.43;;;19.60;50.00;;;;;;5042010;28;20627;-45
2020/12/10 00:47:10;;;;;;;8.63;6.07;;;19.60;50.00;;;;;;5041758;28;20055;-46
2020/12/10 00:49:36;;;;;;;8.35;6.75;;;19.60;50.00;;;;;;5042250;28;20086;-46
2020/12/10 00:52:02;;;;;;;10.57;6.68;;;19.60;50.00;;;;;;5023388;28;20033;-45
2020/12/10 00:54:27;;;;;;;8.80;6.35;;;19.60;50.00;;;;;;5025010;28;20045;-45
2020/12/10 00:56:53;;;;;;;10.55;6.75;;;19.50;49.90;;;;;;5041595;28;20025;-47
2020/12/10 00:59:18;;;;;;;7.68;6.20;;;19.50;50.00;;;;;;5041890;28;20408;-46
2020/12/10 01:01:44;;;;;;;9.60;6.63;;;19.50;50.00;;;;;;5041774;28;20032;-46
2020/12/10 01:04:13;;;;;;;9.48;6.60;;;19.50;50.00;;;;;;5042600;28;20029;-46
2020/12/10 01:06:39;;;;;;;8.07;6.43;;;19.50;50.10;;;;;;5042034;28;20124;-46
2020/12/10 01:09:06;;;;;;;6.75;5.65;;;19.40;50.10;;;;;;5042415;28;20113;-44
2020/12/10 01:11:31;;;;;;;8.05;6.10;;;19.40;50.10;;;;;;5041886;28;20361;-45
2020/12/10 01:13:57;;;;;;;13.98;5.82;;;19.30;50.20;;;;;;5042391;28;20041;-45
2020/12/10 01:16:23;;;;;;;10.05;6.47;;;19.30;50.20;;;;;;5042564;28;20022;-45
2020/12/10 01:18:52;;;;;;;9.00;6.57;;;19.20;50.30;;;;;;5042177;28;20112;-45
2020/12/10 01:21:30;;;;;;;9.20;6.25;;;19.20;50.40;;;;;;5043841;28;20391;-45
2020/12/10 01:23:56;;;;;;;7.72;5.35;;;19.20;50.40;;;;;;5046311;28;20086;-45
2020/12/10 01:26:23;;;;;;;8.73;5.90;;;19.20;50.40;;;;;;5028112;28;20033;-46
2020/12/10 01:28:49;;;;;;;10.95;6.90;;;19.20;50.50;;;;;;5028610;28;20037;-46
2020/12/10 01:31:15;;;;;;;9.00;5.90;;;19.20;50.50;;;;;;5045768;28;20037;-46
2020/12/10 01:33:40;;;;;;;7.75;6.53;;;19.10;50.60;;;;;;5045509;28;20029;-45
2020/12/10 01:36:05;;;;;;;9.32;6.20;;;19.10;50.60;;;;;;5046046;28;20112;-46
2020/12/10 01:38:31;;;;;;;11.07;6.43;;;19.10;50.60;;;;;;5045775;28;20414;-46
2020/12/10 01:40:56;;;;;;;8.68;6.82;;;19.00;50.60;;;;;;5045562;28;20030;-45
2020/12/10 01:43:22;;;;;;;9.40;6.68;;;19.00;50.60;;;;;;5046217;28;20420;-47
2020/12/10 01:45:47;;;;;;;9.60;7.30;;;19.00;50.70;;;;;;5045786;28;20098;-46
2020/12/10 01:48:13;;;;;;;7.97;6.13;;;19.00;50.70;;;;;;5045494;28;20406;-47
2020/12/10 01:50:38;;;;;;;10.00;7.30;;;18.90;50.70;;;;;;5044898;28;20048;-45
2020/12/10 01:53:04;;;;;;;8.27;6.70;;;18.90;50.70;;;;;;5045793;28;20025;-45
2020/12/10 01:55:30;;;;;;;10.40;7.05;;;18.90;50.70;;;;;;5045995;28;20036;-47
2020/12/10 01:57:55;;;;;;;8.13;7.03;;;18.90;50.80;;;;;;5044876;28;20071;-45
2020/12/10 02:00:21;;;;;;;8.38;6.18;;;18.90;50.80;;;;;;5027301;28;20041;-46
2020/12/10 02:02:46;;;;;;;9.35;8.02;;;18.90;50.90;;;;;;5027114;28;20029;-45
2020/12/10 02:05:12;;;;;;;9.98;7.78;;;18.90;50.90;;;;;;5027672;28;20083;-45
2020/12/10 02:07:37;;;;;;;11.43;8.15;;;18.90;50.80;;;;;;5045676;28;20413;-45
2020/12/10 02:10:03;;;;;;;8.82;7.55;;;18.90;50.70;;;;;;5045491;28;20047;-47
2020/12/10 02:12:29;;;;;;;10.57;8.32;;;19.00;50.70;;;;;;5045515;28;20029;-45
2020/12/10 02:14:54;;;;;;;9.93;7.93;;;19.00;50.70;;;;;;5045369;28;20040;-45
2020/12/10 02:17:20;;;;;;;10.00;7.93;;;19.00;50.70;;;;;;5044065;28;20389;-46
2020/12/10 02:19:46;;;;;;;12.60;8.18;;;19.00;50.70;;;;;;5045536;28;20115;-45
2020/12/10 02:22:11;;;;;;;11.52;8.98;;;19.00;50.70;;;;;;5045097;28;20025;-46
2020/12/10 02:24:37;;;;;;;10.98;8.60;;;19.00;50.70;;;;;;5027323;28;20136;-46
2020/12/10 02:27:02;;;;;;;10.10;8.23;;;18.90;50.70;;;;;;5044981;28;20029;-46
2020/12/10 02:29:28;;;;;;;11.07;7.85;;;18.90;50.70;;;;;;5045232;28;20463;-45
2020/12/10 02:31:53;;;;;;;9.38;7.68;;;18.90;50.70;;;;;;5044048;28;20033;-47
2020/12/10 02:34:19;;;;;;;10.77;8.18;;;18.90;50.80;;;;;;5044966;28;20214;-45
2020/12/10 02:36:44;;;;;;;10.70;8.02;;;18.80;50.80;;;;;;5027042;28;20486;-45
2020/12/10 02:39:10;;;;;;;11.93;8.23;;;18.80;50.90;;;;;;5044837;28;20033;-47
2020/12/10 02:41:35;;;;;;;10.38;7.93;;;18.80;50.90;;;;;;5044055;28;20029;-46
2020/12/10 02:44:02;;;;;;;10.68;8.20;;;18.80;50.90;;;;;;5045561;28;20053;-45
2020/12/10 02:46:27;;;;;;;9.90;7.82;;;18.80;50.90;;;;;;5043005;28;20309;-47
2020/12/10 02:48:53;;;;;;;14.30;8.75;;;18.70;50.90;;;;;;5027029;28;20116;-44
2020/12/10 02:51:18;;;;;;;11.23;7.60;;;18.70;50.90;;;;;;5043811;28;20116;-46
2020/12/10 02:53:44;;;;;;;11.40;8.40;;;18.70;51.00;;;;;;5044300;28;20513;-44
2020/12/10 02:56:10;;;;;;;10.70;8.45;;;18.70;51.00;;;;;;5044230;28;20029;-45
2020/12/10 02:58:36;;;;;;;11.27;8.00;;;18.70;51.00;;;;;;5045039;28;20150;-45
2020/12/10 03:01:03;;;;;;;11.40;8.50;;;18.60;51.00;;;;;;5043668;28;20048;-45
2020/12/10 03:03:28;;;;;;;10.77;8.05;;;18.70;51.10;;;;;;5045221;28;20033;-45
2020/12/10 03:05:54;;;;;;;10.85;8.40;;;18.60;51.00;;;;;;5044502;28;20059;-46
2020/12/10 03:08:19;;;;;;;12.75;9.30;;;18.60;51.00;;;;;;5044166;28;20037;-44
2020/12/10 03:10:48;;;;;;;10.82;8.32;;;18.60;51.00;;;;;;5044031;28;20029;-45
2020/12/10 03:13:14;;;;;;;10.77;7.97;;;18.60;51.00;;;;;;5043665;28;20037;-45
2020/12/10 03:15:39;;;;;;;10.80;8.13;;;18.60;51.00;;;;;;5043798;28;20045;-47
2020/12/10 03:18:05;;;;;;;12.25;8.77;;;18.50;50.90;;;;;;5044993;28;20044;-46
2020/12/10 03:20:30;;;;;;;12.27;9.57;;;18.50;51.10;;;;;;5043500;28;20037;-46
2020/12/10 03:22:55;;;;;;;11.95;9.48;;;18.60;51.00;;;;;;5044079;28;20106;-47
2020/12/10 03:25:21;;;;;;;10.75;8.73;;;18.70;51.00;;;;;;5043916;28;20044;-47
2020/12/10 03:27:47;;;;;;;12.40;9.77;;;18.80;50.90;;;;;;5043556;28;20028;-46
2020/12/10 03:30:12;;;;;;;10.93;8.63;;;18.90;50.90;;;;;;5042769;28;20645;-46
2020/12/10 03:32:38;;;;;;;12.23;9.25;;;19.00;50.90;;;;;;5043856;28;20036;-44
2020/12/10 03:35:04;;;;;;;12.70;10.07;;;19.00;50.70;;;;;;5044447;28;20037;-46
2020/12/10 03:37:30;;;;;;;11.48;9.05;;;19.10;50.70;;;;;;5042999;28;20052;-46
2020/12/10 03:39:55;;;;;;;11.10;8.40;;;19.20;50.90;;;;;;5044052;28;20379;-45
2020/12/10 03:42:21;;;;;;;11.38;9.23;;;19.20;50.80;;;;;;5043045;28;20044;-44
2020/12/10 03:44:46;;;;;;;12.75;9.50;;;19.30;50.60;;;;;;5043161;28;20437;-45
2020/12/10 03:47:12;;;;;;;10.75;8.60;;;19.30;50.70;;;;;;5044172;28;20116;-44
2020/12/10 03:49:38;;;;;;;11.20;8.70;;;19.40;50.60;;;;;;5026294;28;20061;-51
2020/12/10 03:52:03;;;;;;;13.00;9.25;;;19.40;50.60;;;;;;5044204;28;20045;-46
2020/12/10 03:54:29;;;;;;;10.23;8.52;;;19.50;50.60;;;;;;5043303;28;20059;-45
2020/12/10 03:56:55;;;;;;;11.65;9.35;;;19.50;51.00;;;;;;5043501;28;20056;-45
2020/12/10 03:59:21;;;;;;;13.50;9.88;;;19.40;50.00;;;;;;5044110;28;20029;-45
2020/12/10 04:01:46;;;;;;;14.75;10.95;;;19.50;49.90;;;;;;5043329;28;20033;-45
2020/12/10 04:04:12;;;;;;;14.38;10.50;;;19.50;49.80;;;;;;5043736;28;20394;-46
2020/12/10 04:06:42;;;;;;;11.55;8.82;;;19.50;49.90;;;;;;5043063;28;20402;-45
2020/12/10 04:09:08;;;;;;;13.55;11.15;;;19.40;49.80;;;;;;5043393;28;20033;-44
2020/12/10 04:11:34;;;;;;;12.48;9.88;;;19.40;49.80;;;;;;5043222;28;20033;-47
2020/12/10 04:13:59;;;;;;;12.93;10.45;;;19.40;49.90;;;;;;5042408;28;20108;-45
2020/12/10 04:16:25;;;;;;;14.43;10.23;;;19.40;49.90;;;;;;5043090;28;20044;-45
2020/12/10 04:18:50;;;;;;;13.43;10.43;;;19.40;49.90;;;;;;5043354;28;20087;-46
2020/12/10 04:21:16;;;;;;;13.00;10.05;;;19.30;49.90;;;;;;5042772;28;20029;-47
2020/12/10 04:23:41;;;;;;;12.15;9.05;;;19.30;50.00;;;;;;5042991;28;20056;-46
2020/12/10 04:26:07;;;;;;;11.70;8.95;;;19.20;50.00;;;;;;5043558;28;20044;-45
2020/12/10 04:28:32;;;;;;;14.82;10.23;;;19.20;50.00;;;;;;5042574;28;20367;-45
2020/12/10 04:30:58;;;;;;;11.73;9.13;;;19.20;50.00;;;;;;5042689;28;20063;-46
2020/12/10 04:33:24;;;;;;;11.80;9.48;;;19.20;50.10;;;;;;5025429;28;20040;-46
2020/12/10 04:35:49;;;;;;;12.25;9.70;;;19.20;50.10;;;;;;5042064;28;20044;-46
2020/12/10 04:38:15;;;;;;;13.13;9.98;;;19.20;50.10;;;;;;5042874;28;20110;-46
2020/12/10 04:40:40;;;;;;;12.27;9.90;;;19.20;50.20;;;;;;5043061;28;20103;-45
2020/12/10 04:43:08;;;;;;;12.68;10.07;;;19.10;50.20;;;;;;5042497;28;20564;-45
2020/12/10 04:45:33;;;;;;;13.25;9.48;;;19.10;50.20;;;;;;5042917;28;20064;-45
2020/12/10 04:47:59;;;;;;;11.30;9.07;;;19.10;50.30;;;;;;5024655;28;20116;-45
2020/12/10 04:50:26;;;;;;;12.38;9.07;;;19.00;50.30;;;;;;5042778;28;20033;-46
2020/12/10 04:52:51;;;;;;;12.00;9.50;;;19.00;50.30;;;;;;5041798;28;20047;-46
2020/12/10 04:55:18;;;;;;;13.45;10.48;;;19.00;50.40;;;;;;5043676;28;20049;-45
2020/12/10 04:57:43;;;;;;;12.50;9.85;;;18.90;50.40;;;;;;5046136;28;20055;-45
2020/12/10 05:00:12;;;;;;;11.93;9.60;;;18.90;50.50;;;;;;5047060;28;20502;-45
2020/12/10 05:02:38;;;;;;;11.13;9.60;;;18.90;50.50;;;;;;5046139;28;20290;-45
2020/12/10 05:05:32;;;;;;;11.65;9.25;;;18.90;50.50;;;;;;5045974;28;20225;-45
2020/12/10 05:07:58;;;;;;;15.05;10.90;;;18.90;50.60;;;;;;5046496;28;20083;-45
2020/12/10 05:10:24;;;;;;;12.95;10.23;;;18.80;50.50;;;;;;5046036;28;20029;-45
2020/12/10 05:12:49;;;;;;;12.50;10.02;;;18.90;50.50;;;;;;5046587;28;20033;-46
2020/12/10 05:15:31;;;;;;;13.13;9.60;;;19.00;50.50;;;;;;5046762;28;20447;-53
2020/12/10 05:18:09;;;;;;;12.20;9.38;;;19.10;50.40;;;;;;5011984;28;20429;-47
2020/12/10 05:20:42;;;;;;;11.98;9.68;;;19.10;50.40;;;;;;5037303;28;20033;-45
2020/12/10 05:23:08;;;;;;;11.25;9.38;;;19.10;50.20;;;;;;5046459;28;20033;-45
2020/12/10 05:25:44;;;;;;;13.70;9.57;;;19.20;50.30;;;;;;5045403;28;20044;-45
2020/12/10 05:28:10;;;;;;;12.48;9.15;;;19.30;50.20;;;;;;5046039;28;20115;-46
2020/12/10 05:30:35;;;;;;;12.93;9.57;;;19.30;50.20;;;;;;5045577;28;20116;-46
2020/12/10 05:33:10;;;;;;;14.82;10.55;;;19.30;50.00;;;;;;5024718;28;20672;-45
2020/12/10 05:35:36;;;;;;;13.18;10.52;;;19.40;50.00;;;;;;5026828;28;20045;-44
2020/12/10 05:38:07;;;;;;;10.35;9.20;;;19.40;49.90;;;;;;5045373;28;20029;-44
2020/12/10 05:40:33;;;;;;;13.52;10.13;;;19.40;49.90;;;;;;5038330;28;20483;-45
2020/12/10 05:42:58;;;;;;;10.90;8.80;;;19.40;49.90;;;;;;5044723;28;20094;-45
2020/12/10 05:45:24;;;;;;;16.73;11.25;;;19.40;49.80;;;;;;5027680;28;20044;-47
2020/12/10 05:47:54;;;;;;;11.82;9.25;;;19.40;49.90;;;;;;5045188;28;20037;-45
2020/12/10 05:50:27;;;;;;;11.68;9.20;;;19.40;49.90;;;;;;5027504;28;20041;-45
2020/12/10 05:52:59;;;;;;;13.73;8.98;;;19.30;49.90;;;;;;5043825;28;20056;-46
2020/12/10 05:55:24;;;;;;;12.77;9.45;;;19.30;50.00;;;;;;5044944;28;20059;-46
2020/12/10 05:57:50;;;;;;;12.93;9.27;;;19.30;50.00;;;;;;5027602;28;20490;-49
2020/12/10 06:00:16;;;;;;;12.15;9.50;;;19.20;50.00;;;;;;5026344;28;20632;-45
2020/12/10 06:02:41;;;;;;;13.02;9.57;;;19.20;50.10;;;;;;5043925;28;20395;-47
2020/12/10 06:05:07;;;;;;;12.25;9.10;;;19.20;50.10;;;;;;5027418;28;20056;-46
2020/12/10 06:07:32;;;;;;;12.18;9.23;;;19.20;50.20;;;;;;5026328;28;20116;-45
2020/12/10 06:09:58;;;;;;;12.45;9.48;;;19.20;50.20;;;;;;5026541;28;20052;-46
2020/12/10 06:12:24;;;;;;;12.73;9.95;;;19.10;50.20;;;;;;5044118;28;20060;-46
2020/12/10 06:14:53;;;;;;;11.63;9.70;;;19.10;50.20;;;;;;5044408;28;20409;-46
2020/12/10 06:17:19;;;;;;;13.25;9.60;;;19.10;50.20;;;;;;5044169;28;20060;-46
2020/12/10 06:19:44;;;;;;;11.00;9.00;;;19.10;50.30;;;;;;5045239;28;20482;-45
2020/12/10 06:22:29;;;;;;;14.88;10.02;;;19.00;50.30;;;;;;5044903;28;20045;-45
2020/12/10 06:24:58;;;;;;;11.63;9.60;;;19.00;50.30;;;;;;5053748;23;20674;-52
2020/12/10 06:27:33;;;;;;;11.35;9.25;;;19.00;50.30;;;;;;5024436;28;20053;-58
2020/12/10 06:30:13;;;;;;;13.63;9.90;;;18.90;50.30;;;;;;5025146;28;20084;-63
2020/12/10 06:32:59;;;;;;;12.85;9.60;;;18.90;50.40;;;;;;5024988;28;20653;-64
2020/12/10 06:35:32;;;;;;;11.15;9.23;;;18.90;50.50;;;;;;5015931;28;20077;-63
2020/12/10 06:37:58;;;;;;;12.73;9.85;;;18.90;50.50;;;;;;5006073;28;20088;-54
2020/12/10 06:40:40;;;;;;;13.20;9.52;;;18.80;50.50;;;;;;5006920;28;20500;-61
2020/12/10 06:43:07;;;;;;;14.13;10.07;;;18.80;50.50;;;;;;5005710;28;20399;-58
2020/12/10 06:45:37;;;;;;;13.63;10.10;;;18.80;50.60;;;;;;5005338;28;20064;-57
2020/12/10 06:48:06;;;;;;;11.50;8.77;;;18.80;50.60;;;;;;5005976;28;20559;-60
2020/12/10 06:50:33;;;;;;;13.48;9.52;;;18.80;50.50;;;;;;5006185;28;20042;-62
2020/12/10 06:53:11;;;;;;;12.75;9.77;;;18.80;50.60;;;;;;5006269;28;20522;-60
2020/12/10 06:55:55;;;;;;;11.05;9.00;;;18.80;50.60;;;;;;5005858;28;20038;-60
2020/12/10 06:58:21;;;;;;;15.25;10.30;;;18.80;50.70;;;;;;5005729;28;20400;-63
2020/12/10 07:00:49;;;;;;;13.38;9.77;;;18.80;50.60;;;;;;4988037;28;20034;-63
2020/12/10 07:03:22;;;;;;;15.77;12.18;;;18.80;50.50;;;;;;5005520;28;20032;-63
2020/12/10 07:05:48;;;;;;;17.13;11.63;;;18.80;50.50;;;;;;5005489;28;20026;-62
2020/12/10 07:08:16;;;;;;;17.20;11.35;;;18.90;50.50;;;;;;4987968;28;20057;-62
2020/12/10 07:10:45;;;;;;;13.05;9.65;;;19.00;50.50;;;;;;4988513;28;20037;-62
2020/12/10 07:13:11;;;;;;;14.05;11.10;;;19.00;50.40;;;;;;5005788;28;20030;-63
2020/12/10 07:15:37;;;;;;;14.32;10.50;;;19.00;50.40;;;;;;5005249;28;20033;-61
2020/12/10 07:18:04;;;;;;;16.92;11.90;;;19.10;50.40;;;;;;4983106;28;20125;-63
2020/12/10 07:20:31;;;;;;;15.05;10.73;;;19.10;50.30;;;;;;4986530;28;20457;-63
2020/12/10 07:22:56;;;;;;;14.18;11.02;;;19.20;50.30;;;;;;4985571;28;20069;-62
2020/12/10 07:25:22;;;;;;;16.75;10.52;;;19.20;50.30;;;;;;4987575;28;20054;-63
2020/12/10 07:27:47;;;;;;;11.93;9.13;;;19.20;50.30;;;;;;4986479;28;20034;-63
2020/12/10 07:30:13;;;;;;;13.27;10.00;;;19.30;50.20;;;;;;4985828;28;20038;-49
2020/12/10 07:32:39;;;;;;;13.48;10.07;;;19.30;50.10;;;;;;4985812;28;20036;-50
2020/12/10 07:35:05;;;;;;;14.85;10.30;;;19.30;50.00;;;;;;4984426;28;20569;-57
2020/12/10 07:37:32;;;;;;;16.45;11.38;;;19.40;50.00;;;;;;4985253;28;20030;-61
2020/12/10 07:40:13;;;;;;;17.02;11.95;;;19.40;50.00;;;;;;4985407;28;20034;-57
2020/12/10 07:42:39;;;;;;;17.63;10.88;;;19.30;49.90;;;;;;4985124;28;20031;-58
2020/12/10 07:45:18;;;;;;;19.27;13.68;;;19.40;49.90;;;;;;4985311;28;20539;-62
2020/12/10 07:47:56;;;;;;;16.60;10.35;;;19.30;49.90;;;;;;4985162;28;20041;-53
2020/12/10 07:50:22;;;;;;;22.42;14.35;;;19.30;49.80;;;;;;4985216;28;20035;-51
2020/12/10 07:52:49;;;;;;;11.40;9.35;;;19.30;49.80;;;;;;4984896;28;20044;-56
2020/12/10 07:55:20;;;;;;;12.23;8.88;;;19.30;49.90;;;;;;4985522;28;20508;-59
2020/12/10 07:57:50;;;;;;;12.85;9.88;;;19.20;49.90;;;;;;4968034;28;20042;-60
2020/12/10 08:00:19;;;;;;;12.32;8.35;;;19.20;50.00;;;;;;4968463;28;20034;-61
2020/12/10 08:03:04;;;;;;;12.75;8.32;;;19.20;50.10;;;;;;4968235;28;20026;-62
2020/12/10 08:05:29;;;;;;;12.00;9.15;;;19.10;50.00;;;;;;4967577;28;20034;-62
2020/12/10 08:07:55;;;;;;;12.80;8.90;;;19.10;50.00;;;;;;4967784;28;20027;-56
2020/12/10 08:10:33;;;;;;;13.45;9.93;;;19.10;50.10;;;;;;4967829;28;20539;-60
2020/12/10 08:13:32;;;;;;;12.30;9.25;;;19.10;50.20;;;;;;4967988;28;20050;-52
2020/12/10 08:16:05;;;;;;;14.50;9.32;;;19.10;50.20;;;;;;4940924;28;20034;-58
2020/12/10 08:18:31;;;;;;;14.95;9.15;;;19.00;50.20;;;;;;4951655;28;20030;-60
2020/12/10 08:20:56;;;;;;;14.57;10.00;;;19.00;50.20;;;;;;4985519;28;20508;-62
2020/12/10 08:23:22;;;;;;;13.45;9.25;;;19.00;50.20;;;;;;4984604;28;20109;-52
2020/12/10 08:25:48;;;;;;;12.05;9.10;;;18.90;50.30;;;;;;4984155;28;20038;-55
2020/12/10 08:28:13;;;;;;;11.00;8.75;;;18.90;50.30;;;;;;4984450;28;20129;-60
2020/12/10 08:30:52;;;;;;;13.25;9.80;;;18.90;50.30;;;;;;4984529;28;20173;-60
2020/12/10 08:33:17;;;;;;;13.27;10.27;;;18.90;50.40;;;;;;4984452;28;20417;-61
2020/12/10 08:35:43;;;;;;;9.98;8.18;;;18.80;50.40;;;;;;4984071;28;20030;-61
2020/12/10 08:38:09;;;;;;;11.75;8.82;;;18.80;50.40;;;;;;4984802;28;20042;-59
2020/12/10 08:40:34;;;;;;;19.35;12.73;;;18.80;50.50;;;;;;4984812;28;20034;-48
2020/12/10 08:43:16;;;;;;;11.48;9.07;;;18.90;50.50;;;;;;4984567;28;20113;-55
2020/12/10 08:45:45;;;;;;;11.90;9.25;;;18.90;50.50;;;;;;4984551;28;20038;-56
2020/12/10 08:48:11;;;;;;;15.68;10.40;;;19.10;50.50;;;;;;4984379;28;20026;-60
2020/12/10 08:50:53;;;;;;;10.65;8.52;;;19.20;50.40;;;;;;4984354;28;20512;-60
2020/12/10 08:53:19;;;;;;;12.85;8.98;;;19.30;50.50;;;;;;4968304;28;20092;-59
2020/12/10 08:55:55;;;;;;;11.75;8.80;;;19.40;50.40;;;;;;4984266;28;20034;-59
2020/12/10 08:58:22;;;;;;;12.55;9.32;;;19.50;50.40;;;;;;4984809;28;20069;-55
2020/12/10 09:00:48;;;;;;;12.90;9.38;;;19.50;50.20;;;;;;4984215;28;20570;-54
2020/12/10 09:03:14;;;;;;;11.63;9.27;;;19.60;50.10;;;;;;4984240;28;20053;-50
2020/12/10 09:05:39;;;;;;;13.40;9.75;;;19.60;50.00;;;;;;4984251;28;20109;-61
2020/12/10 09:08:05;;;;;;;14.57;10.45;;;19.60;49.90;;;;;;4983938;28;20512;-62
2020/12/10 09:10:30;;;;;;;15.45;10.48;;;19.60;49.80;;;;;;4985443;28;20569;-61
2020/12/10 09:12:57;;;;;;;15.15;10.32;;;19.60;49.70;;;;;;4984274;28;20034;-53
2020/12/10 09:15:23;;;;;;;14.45;10.82;;;19.60;49.70;;;;;;4983671;28;20084;-61
2020/12/10 09:17:48;;;;;;;15.32;11.80;;;19.50;49.60;;;;;;4983919;28;20113;-57
2020/12/10 09:20:14;;;;;;;16.23;11.15;;;19.50;49.50;;;;;;4984290;28;20030;-61
2020/12/10 09:22:39;;;;;;;18.05;12.52;;;19.50;49.50;;;;;;4984403;28;20133;-55
2020/12/10 09:25:05;;;;;;;14.30;11.20;;;19.50;49.50;;;;;;4984805;28;20065;-60
2020/12/10 09:27:32;;;;;;;17.35;13.15;;;19.50;49.60;;;;;;4984113;28;20022;-61
2020/12/10 09:29:58;;;;;;;13.40;11.75;;;19.40;49.50;;;;;;4983807;28;20026;-62
2020/12/10 09:32:23;;;;;;;12.98;9.55;;;19.40;49.60;;;;;;4983861;28;20448;-60
2020/12/10 09:34:49;;;;;;;12.27;9.80;;;19.40;49.70;;;;;;4983585;28;20030;-60
2020/12/10 09:37:14;;;;;;;11.73;9.32;;;19.40;49.70;;;;;;4984267;28;20031;-62
2020/12/10 09:39:40;;;;;;;11.50;9.55;;;19.30;49.70;;;;;;4984020;28;20054;-57
2020/12/10 09:42:05;;;;;;;12.02;9.10;;;19.30;49.80;;;;;;4985971;28;20034;-52
2020/12/10 09:44:32;;;;;;;11.48;8.75;;;19.30;49.90;;;;;;4987138;28;20031;-62
2020/12/10 09:46:57;;;;;;;12.95;9.07;;;19.30;49.90;;;;;;4987762;28;20117;-62
2020/12/10 09:49:22;;;;;;;10.85;8.60;;;19.20;49.90;;;;;;4987972;28;20114;-55
2020/12/10 09:51:52;;;;;;;12.38;9.20;;;19.20;49.90;;;;;;4987363;28;20027;-62
2020/12/10 09:54:39;;;;;;;11.57;8.88;;;19.20;49.90;;;;;;4986870;28;20464;-60
2020/12/10 09:57:49;;;;;;;12.98;9.48;;;19.20;50.00;;;;;;4987353;28;20027;-55
2020/12/10 09:59:50;;;;;;;11.52;8.52;;;19.10;50.00;;;;;;4973329;28;20674;-60
2020/12/10 10:02:19;;;;;;;12.27;8.90;;;19.10;50.00;;;;;;4986581;28;20039;-62
2020/12/10 10:04:44;;;;;;;10.75;8.70;;;19.10;50.20;;;;;;4969556;28;20018;-60
2020/12/10 10:07:10;;;;;;;12.45;8.77;;;19.00;50.00;;;;;;4969701;28;20077;-55
2020/12/10 10:09:37;;;;;;;10.43;8.27;;;19.00;50.10;;;;;;4970833;28;20493;-61
2020/12/10 10:12:04;;;;;;;10.95;8.93;;;19.00;50.10;;;;;;4986805;28;20032;-58
2020/12/10 10:14:30;;;;;;;9.88;8.20;;;19.00;50.10;;;;;;4986706;28;20045;-61
2020/12/10 10:16:56;;;;;;;13.30;8.75;;;18.90;50.10;;;;;;4986278;28;20031;-59
2020/12/10 10:19:21;;;;;;;11.63;9.10;;;18.90;50.20;;;;;;4986819;28;20035;-50
2020/12/10 10:21:47;;;;;;;15.02;10.27;;;18.90;50.20;;;;;;4987006;28;20593;-53
2020/12/10 10:24:13;;;;;;;15.73;11.98;;;18.90;50.20;;;;;;4987141;28;20046;-54
2020/12/10 10:26:38;;;;;;;13.57;10.43;;;19.00;50.80;;;;;;4969812;28;20034;-54
2020/12/10 10:29:07;;;;;;;11.80;9.52;;;19.10;50.20;;;;;;4986700;28;20045;-60
2020/12/10 10:31:32;;;;;;;12.23;9.25;;;19.10;50.10;;;;;;4969348;28;20477;-62
2020/12/10 10:33:58;;;;;;;12.60;8.63;;;19.20;50.30;;;;;;4986577;28;20026;-61
2020/12/10 10:36:23;;;;;;;15.18;9.70;;;19.30;50.20;;;;;;4986916;28;20034;-60
2020/12/10 10:38:49;;;;;;;11.65;8.98;;;19.40;50.00;;;;;;4986679;28;20979;-60
2020/12/10 10:41:14;;;;;;;12.23;9.85;;;19.50;50.00;;;;;;4986383;28;20026;-62
2020/12/10 10:43:40;;;;;;;11.07;8.70;;;19.60;50.00;;;;;;4986994;28;20081;-61
2020/12/10 10:46:05;;;;;;;13.02;8.88;;;19.60;49.80;;;;;;4969110;28;20029;-53
2020/12/10 10:48:31;;;;;;;12.98;9.57;;;19.60;49.80;;;;;;4986909;28;20038;-60
2020/12/10 10:50:57;;;;;;;15.07;9.77;;;19.60;49.60;;;;;;4986160;28;20089;-56
2020/12/10 10:53:22;;;;;;;12.77;9.85;;;19.60;49.50;;;;;;4984888;28;20050;-51
2020/12/10 10:55:48;;;;;;;12.68;10.00;;;19.70;49.50;;;;;;4986069;28;20077;-62
2020/12/10 10:58:14;;;;;;;13.55;11.02;;;19.60;49.40;;;;;;4986314;28;20034;-59
2020/12/10 11:00:39;;;;;;;13.65;9.98;;;19.60;49.40;;;;;;4987215;28;20038;-61
2020/12/10 11:03:05;;;;;;;16.48;11.75;;;19.60;49.40;;;;;;4985748;28;20037;-56
2020/12/10 11:05:30;;;;;;;12.65;10.35;;;19.50;49.30;;;;;;4986255;28;20540;-61
2020/12/10 11:07:57;;;;;;;15.88;11.50;;;19.60;49.50;;;;;;4985736;28;20077;-62
2020/12/10 11:10:22;;;;;;;11.65;8.63;;;19.50;49.40;;;;;;4986433;28;20034;-60
2020/12/10 11:12:49;;;;;;;12.45;8.75;;;19.50;49.40;;;;;;4985967;28;20573;-55
2020/12/10 11:15:15;;;;;;;10.70;7.82;;;19.40;49.40;;;;;;4986211;28;20496;-61
2020/12/10 11:17:40;;;;;;;10.65;8.57;;;19.40;49.60;;;;;;4986128;28;20031;-56
2020/12/10 11:20:06;;;;;;;11.93;8.43;;;19.40;49.60;;;;;;4985131;28;20509;-52
2020/12/10 11:22:34;;;;;;;11.02;8.90;;;19.40;49.70;;;;;;4985249;28;20049;-60
2020/12/10 11:24:59;;;;;;;10.73;9.07;;;19.30;49.70;;;;;;4985834;28;20046;-49
2020/12/10 11:27:25;;;;;;;11.25;8.32;;;19.30;49.70;;;;;;4985690;28;20677;-60
2020/12/10 11:29:50;;;;;;;8.82;7.68;;;19.30;49.80;;;;;;4985521;28;20117;-61
2020/12/10 11:32:16;;;;;;;9.90;8.70;;;19.20;49.70;;;;;;4985703;28;20041;-57
2020/12/10 11:34:41;;;;;;;10.32;8.63;;;19.20;49.70;;;;;;4985428;28;20085;-52
2020/12/10 11:37:07;;;;;;;11.55;8.45;;;19.20;49.80;;;;;;4986007;28;20487;-50
2020/12/10 11:39:32;;;;;;;11.30;8.77;;;19.20;49.80;;;;;;4968055;28;20449;-61
2020/12/10 11:41:58;;;;;;;12.43;8.80;;;19.10;49.70;;;;;;4984948;28;20037;-60
2020/12/10 11:44:23;;;;;;;11.10;7.72;;;19.10;49.80;;;;;;4984878;28;20489;-54
2020/12/10 11:46:49;;;;;;;10.75;8.35;;;19.10;49.90;;;;;;4968000;28;20638;-59
2020/12/10 11:49:14;;;;;;;10.77;8.15;;;19.10;49.90;;;;;;4986069;28;20054;-61
2020/12/10 11:51:40;;;;;;;11.75;8.98;;;19.10;50.00;;;;;;4984941;28;20050;-58
2020/12/10 11:54:06;;;;;;;12.55;8.50;;;19.00;50.00;;;;;;4967960;28;20042;-61
2020/12/10 11:56:31;;;;;;;10.35;8.63;;;19.00;50.00;;;;;;4985516;28;20418;-58
2020/12/10 11:58:57;;;;;;;9.82;7.72;;;19.00;50.00;;;;;;4984892;28;20023;-57
2020/12/10 12:01:22;;;;;;;11.43;8.38;;;18.90;50.00;;;;;;4951368;28;20122;-60
2020/12/10 12:03:48;;;;;;;10.25;8.57;;;18.90;50.10;;;;;;4985548;28;20035;-51
2020/12/10 12:06:15;;;;;;;12.85;9.60;;;18.90;50.10;;;;;;4984830;28;20034;-60
2020/12/10 12:08:41;;;;;;;13.18;9.57;;;18.90;50.00;;;;;;4984922;28;20026;-60
2020/12/10 12:11:06;;;;;;;12.60;9.45;;;19.00;50.00;;;;;;4984641;28;20056;-56
2020/12/10 12:13:32;;;;;;;11.70;9.10;;;19.10;50.00;;;;;;4985564;28;20026;-62
2020/12/10 12:15:57;;;;;;;10.45;9.25;;;19.10;50.00;;;;;;4984803;28;20037;-63
2020/12/10 12:18:25;;;;;;;11.75;8.52;;;19.30;50.00;;;;;;4984813;28;20120;-63
2020/12/10 12:20:51;;;;;;;11.50;9.25;;;19.30;49.90;;;;;;4984466;28;20042;-62
2020/12/10 12:23:17;;;;;;;11.70;9.13;;;19.40;49.90;;;;;;4985157;28;20668;-63
2020/12/10 12:25:42;;;;;;;11.15;8.82;;;19.40;49.70;;;;;;4984782;28;20050;-57
2020/12/10 12:28:08;;;;;;;12.68;9.38;;;19.40;49.60;;;;;;4984221;28;20030;-61
2020/12/10 12:30:33;;;;;;;12.48;9.70;;;19.50;49.60;;;;;;4984710;28;20246;-56
2020/12/10 12:32:59;;;;;;;12.20;9.32;;;19.50;49.50;;;;;;4967021;28;20092;-63
2020/12/10 12:35:25;;;;;;;15.02;11.45;;;19.50;49.50;;;;;;4984105;28;20066;-51